WXcenter Banner NOAA Logo links to NOAA website FRD Logo links to FRD website

NOAA INL CURRENT OBSERVATIONS


NOAA AIR RESOURCES LABORATORY
MESONET WEATHER CONDITIONS FOR 23-Jan-18

Towers located at INL Facilities:

                      Time  Dir/Spd  Temp  WC  RH  Pres.
Location              MST   deg/mph   (F)  (F)  %  In.Hg

ATR                  12:50   39/  2    23  23  85  25.33
CFA                  12:50    8/  3    23  23  80  25.29
CIT                  12:50   97/  2    24  24  80  25.33
INTEC                12:50   21/  4    23  18  80  25.32
MFC                  12:50  344/  3    24  24  84  25.09
NRF                  12:50  319/  2    21  21  90  25.39
RWMC                 12:50   43/  4    23  18  93  25.22
SMC                  12:50   79/  1    24  24  72  25.44

Other towers located inside the INL:

                      Time  Dir/Spd  Temp  WC  RH  Pres.
Location              MST   deg/mph   (F)  (F)  %  In.Hg

Base of Howe Peak    12:50    5/  2    24  24  76  25.35
Deadman Canyon       12:50   60/  3    24  20  81  25.12
Lost River           12:50   32/  3    22  22  91  25.26
Rover                12:50   10/  2    23  23  96  25.23
Sand Dunes           12:50  165/  2    24  24  80  25.44

Towers located outside the INL:

                      Time  Dir/Spd  Temp  WC  RH  Pres.
Location              MST   deg/mph   (F)  (F)  %  In.Hg

Aberdeen             12:50  353/  3    29  26  85  25.81
Arco                 12:50  232/  2    22  22  91
Atomic City          12:50  348/  3    26  26  74  25.22
Blackfoot            12:50  336/  2    29  29  75  25.72
Blue Dome            12:50  189/  8    21  11  77
Cox's Well           12:50   83/  3    25  21  90
Craters of the Moon  12:50  134/  3    29  29  71  24.30
Dubois               12:50  188/  4    24  19  72  24.80
Fort Hall            12:50   15/  4    32  27  71  25.74
Hamer                12:50  110/  3    25  21  81
Howe                 12:50  168/  5    24  18  75
Idaho Falls (REC)    12:50  223/  3    28  25  85  25.51
Kettle Butte         12:50  233/ --    26  --  88  25.04
Minidoka             12:50   84/  9    32  24  77  25.90
Monteview            12:50  118/  1    25  25  77  25.43
Richfield            12:50   87/  9    27  18  98  25.85
Roberts              12:50  207/  3    27  27  85
Sugar City           12:50  264/  8    27  18  86  25.34
Taber                12:50  212/  3    27  24  80
Terreton             12:50  341/  3    24  24  92  25.43

Updated every 5 minutes. Unreviewed data; maintenance may cause some errors.
Forecast: 526-8884   Info: 526-2744
            

This page automatically refreshes every 5 minutes.


Modified: March 1, 2011
Dept. of Commerce |  NOAA |  NOAA Research |  ARL |  FRD Privacy |  Disclaimer |  Information Quality |  webmaster